createdAt,value
2023-09-29T00:00:16.167Z,55.29
2023-09-29T00:05:20.429Z,55.55
2023-09-29T00:10:24.382Z,56.14
2023-09-29T00:15:29.285Z,56.01
2023-09-29T00:20:32.769Z,55.97
2023-09-29T00:25:36.242Z,55.51
2023-09-29T00:30:41.116Z,55.65
2023-09-29T00:35:44.770Z,55.87
2023-09-29T00:40:48.403Z,56.67
2023-09-29T00:45:53.428Z,56.92
2023-09-29T00:50:57.029Z,56.49
2023-09-29T00:56:00.576Z,57.05
2023-09-29T01:01:07.648Z,57.04
2023-09-29T01:06:11.453Z,56.88
2023-09-29T01:11:15.038Z,56.68
2023-09-29T01:16:21.240Z,56.92
2023-09-29T01:21:24.984Z,56.71
2023-09-29T01:26:30.414Z,56.70
2023-09-29T01:31:35.545Z,56.07
2023-09-29T01:36:40.440Z,56.40
2023-09-29T01:41:45.265Z,56.44
2023-09-29T01:46:50.484Z,55.75
2023-09-29T01:51:54.781Z,56.54
2023-09-29T01:57:02.410Z,56.95
2023-09-29T02:02:06.786Z,56.89
2023-09-29T02:07:11.184Z,57.00
2023-09-29T02:12:16.619Z,57.12
2023-09-29T02:17:20.073Z,57.49
2023-09-29T02:22:23.503Z,57.56
2023-09-29T02:27:30.201Z,57.44
2023-09-29T02:32:35.679Z,57.37
2023-09-29T02:37:39.568Z,58.05
2023-09-29T02:42:45.530Z,57.94
2023-09-29T02:47:49.676Z,58.00
2023-09-29T02:52:53.534Z,58.48
2023-09-29T02:57:59.257Z,57.99
2023-09-29T03:03:04.910Z,58.14
2023-09-29T03:08:08.665Z,57.60
2023-09-29T03:13:14.107Z,58.30
2023-09-29T03:18:17.721Z,57.75
2023-09-29T03:23:21.248Z,58.45
2023-09-29T03:28:26.842Z,57.98
2023-09-29T03:33:30.854Z,58.14
2023-09-29T03:38:34.442Z,58.13
2023-09-29T03:43:40.056Z,58.50
2023-09-29T03:48:47.667Z,58.66
2023-09-29T03:53:51.423Z,58.81
2023-09-29T03:58:56.824Z,58.87
2023-09-29T04:04:02.655Z,59.26
2023-09-29T04:09:07.071Z,59.66
2023-09-29T04:14:23.887Z,58.92
2023-09-29T04:19:36.481Z,59.31
2023-09-29T04:24:41.508Z,59.10
2023-09-29T04:29:47.463Z,59.23
2023-09-29T04:34:50.974Z,59.36
2023-09-29T04:39:57.102Z,59.36
2023-09-29T04:45:02.214Z,59.44
2023-09-29T04:50:07.138Z,58.68
2023-09-29T04:55:11.569Z,59.15
2023-09-29T05:00:17.718Z,59.19
2023-09-29T05:05:21.181Z,59.08
2023-09-29T05:10:25.583Z,58.46
2023-09-29T05:15:30.591Z,59.00
2023-09-29T05:20:34.673Z,60.31
2023-09-29T05:25:38.154Z,59.45
2023-09-29T05:30:54.393Z,58.14
2023-09-29T05:35:58.144Z,59.97
2023-09-29T05:41:01.618Z,59.19
2023-09-29T05:46:07.009Z,59.82
2023-09-29T05:51:10.634Z,61.09
2023-09-29T05:56:14.399Z,62.02
2023-09-29T06:01:19.375Z,60.63
2023-09-29T06:06:22.931Z,61.84
2023-09-29T06:11:26.414Z,61.77
2023-09-29T06:16:31.303Z,60.44
2023-09-29T06:21:35.845Z,61.91
2023-09-29T06:26:39.284Z,61.06
2023-09-29T06:31:44.187Z,60.99
2023-09-29T06:36:47.701Z,61.38
2023-09-29T06:41:51.221Z,62.26
2023-09-29T06:46:56.309Z,59.78
2023-09-29T06:51:59.795Z,62.17
2023-09-29T06:57:03.364Z,60.81
2023-09-29T07:02:08.547Z,60.88
2023-09-29T07:07:12.019Z,61.23
2023-09-29T07:12:15.632Z,59.49
2023-09-29T07:17:20.535Z,58.74
2023-09-29T07:22:24.063Z,59.01
2023-09-29T07:27:29.131Z,58.81
2023-09-29T07:32:34.045Z,60.20
2023-09-29T07:37:39.363Z,59.44
2023-09-29T07:42:43.007Z,57.78
2023-09-29T07:47:48.431Z,57.97
2023-09-29T07:52:52.214Z,59.05
2023-09-29T07:57:55.816Z,58.69
2023-09-29T08:03:01.371Z,59.32
2023-09-29T08:08:05.693Z,58.37
2023-09-29T08:13:09.479Z,59.38
2023-09-29T08:18:15.155Z,58.68
2023-09-29T08:23:18.775Z,58.47
2023-09-29T08:28:22.659Z,57.73
2023-09-29T08:38:36.443Z,57.66
2023-09-29T08:43:46.368Z,57.29
2023-09-29T08:48:58.972Z,55.44
2023-09-29T08:54:04.778Z,54.85
2023-09-29T08:59:08.961Z,56.02
2023-09-29T09:04:14.289Z,56.64
2023-09-29T09:09:24.726Z,54.51
2023-09-29T09:14:28.444Z,52.56
2023-09-29T09:19:34.205Z,52.75
2023-09-29T09:24:37.860Z,49.59
2023-09-29T09:29:42.839Z,48.56
2023-09-29T09:34:50.315Z,49.02
2023-09-29T09:39:56.789Z,47.83
2023-09-29T09:50:32.153Z,47.69
2023-09-29T09:55:40.913Z,47.35
2023-09-29T10:00:50.340Z,48.22
2023-09-29T10:05:57.328Z,46.60
2023-09-29T10:11:12.942Z,46.77
2023-09-29T10:16:23.535Z,46.77
2023-09-29T10:21:32.060Z,44.90
2023-09-29T10:26:44.936Z,46.48
2023-09-29T10:31:51.338Z,45.23
2023-09-29T10:36:58.437Z,44.62
2023-09-29T10:42:13.910Z,44.90
2023-09-29T10:47:18.602Z,43.20
2023-09-29T10:52:24.522Z,42.62
2023-09-29T10:57:29.822Z,43.11
2023-09-29T11:02:35.538Z,42.25
2023-09-29T11:07:52.038Z,44.17
2023-09-29T11:12:55.564Z,41.30
2023-09-29T11:17:59.353Z,40.58
2023-09-29T11:23:12.884Z,41.09
2023-09-29T11:28:17.163Z,41.63
2023-09-29T11:33:21.227Z,40.39
2023-09-29T11:38:26.258Z,41.49
2023-09-29T11:43:29.848Z,40.67
2023-09-29T11:48:33.603Z,40.79
2023-09-29T11:53:40.030Z,41.64
2023-09-29T11:58:43.603Z,40.22
2023-09-29T12:03:47.376Z,41.47
2023-09-29T12:08:52.569Z,42.25
2023-09-29T12:13:56.553Z,41.59
2023-09-29T12:19:00.193Z,41.26
2023-09-29T12:24:05.985Z,42.55
2023-09-29T12:29:09.638Z,42.57
2023-09-29T12:34:15.798Z,41.85
2023-09-29T12:39:20.934Z,40.92
2023-09-29T12:44:25.211Z,40.61
2023-09-29T12:49:28.962Z,42.18
2023-09-29T12:54:33.999Z,41.08
2023-09-29T12:59:37.919Z,39.58
2023-09-29T13:04:43.055Z,40.22
2023-09-29T13:09:48.334Z,40.75
2023-09-29T13:14:53.114Z,40.55
2023-09-29T13:19:56.707Z,39.59
2023-09-29T13:25:01.532Z,39.91
2023-09-29T13:30:06.406Z,40.43
2023-09-29T13:35:10.895Z,39.75
2023-09-29T13:40:17.162Z,39.83
2023-09-29T13:45:21.032Z,40.71
2023-09-29T13:50:24.575Z,39.41
2023-09-29T13:55:29.544Z,40.41
2023-09-29T14:00:33.093Z,39.62
2023-09-29T14:05:40.206Z,40.46
2023-09-29T14:10:45.171Z,40.67
2023-09-29T14:15:48.775Z,41.66
2023-09-29T14:20:53.605Z,42.53
2023-09-29T14:25:58.406Z,44.18
2023-09-29T14:31:03.519Z,44.44
2023-09-29T14:36:08.356Z,45.49
2023-09-29T14:41:14.692Z,45.67
2023-09-29T14:46:18.506Z,46.46
2023-09-29T14:51:22.140Z,47.37
2023-09-29T14:56:27.247Z,47.47
2023-09-29T15:01:30.895Z,48.63
2023-09-29T15:06:34.472Z,48.17
2023-09-29T15:11:39.919Z,48.45
2023-09-29T15:16:43.439Z,48.40
2023-09-29T15:21:47.012Z,48.48
2023-09-29T15:26:51.786Z,48.21
2023-09-29T15:31:55.373Z,48.59
2023-09-29T15:36:58.880Z,48.05
2023-09-29T15:42:03.723Z,47.61
2023-09-29T15:47:07.339Z,48.23
2023-09-29T15:52:12.228Z,48.48
2023-09-29T15:57:17.009Z,48.73
2023-09-29T16:02:26.735Z,48.91
2023-09-29T16:07:32.741Z,49.20
2023-09-29T16:12:37.725Z,49.54
2023-09-29T16:17:43.433Z,49.87
2023-09-29T16:23:06.868Z,49.92
2023-09-29T16:28:20.461Z,48.76
2023-09-29T16:33:24.455Z,48.85
2023-09-29T16:38:28.036Z,49.29
2023-09-29T16:43:32.964Z,49.70
2023-09-29T16:48:36.703Z,48.59
2023-09-29T16:53:40.325Z,47.67
2023-09-29T16:58:45.146Z,47.56
2023-09-29T17:03:48.693Z,48.35
2023-09-29T17:08:52.522Z,48.08
2023-09-29T17:13:58.657Z,48.51
2023-09-29T17:19:02.481Z,48.99
2023-09-29T17:24:07.448Z,48.86
2023-09-29T17:29:12.434Z,49.02
2023-09-29T17:34:15.991Z,49.27
2023-09-29T17:39:19.583Z,49.10
2023-09-29T17:44:24.589Z,49.22
2023-09-29T17:49:28.233Z,49.26
2023-09-29T17:54:31.970Z,49.21
2023-09-29T17:59:36.986Z,49.65
2023-09-29T18:04:40.531Z,49.89
2023-09-29T18:09:44.050Z,50.10
2023-09-29T18:14:48.920Z,50.35
2023-09-29T18:19:52.587Z,50.46
2023-09-29T18:24:56.111Z,51.01
2023-09-29T18:30:01.071Z,51.62
2023-09-29T18:35:05.358Z,51.28
2023-09-29T18:40:13.461Z,50.95
2023-09-29T18:45:18.544Z,51.22
2023-09-29T18:50:22.049Z,51.11
2023-09-29T18:55:25.681Z,51.08
2023-09-29T19:00:33.087Z,51.18
2023-09-29T19:05:38.977Z,51.32
2023-09-29T19:10:43.983Z,51.06
2023-09-29T19:15:51.593Z,51.20
2023-09-29T19:20:56.260Z,51.85
2023-09-29T19:26:01.491Z,51.49
2023-09-29T19:31:06.343Z,51.23
2023-09-29T19:36:09.929Z,52.10
2023-09-29T19:41:14.620Z,52.49
2023-09-29T19:46:22.945Z,52.99
2023-09-29T19:51:26.779Z,54.34
2023-09-29T19:56:34.553Z,54.83
2023-09-29T20:01:40.449Z,55.73
2023-09-29T20:06:44.366Z,56.39
2023-09-29T20:11:48.146Z,56.61
2023-09-29T20:16:55.486Z,57.12
2023-09-29T20:21:59.796Z,57.82
2023-09-29T20:27:03.505Z,57.86
2023-09-29T20:32:08.412Z,58.40
2023-09-29T20:37:15.944Z,59.61
2023-09-29T20:42:20.156Z,59.58
2023-09-29T20:47:25.308Z,59.13
2023-09-29T20:52:31.779Z,59.43
2023-09-29T20:57:36.536Z,59.10
2023-09-29T21:02:42.342Z,59.30
2023-09-29T21:07:45.962Z,59.64
2023-09-29T21:12:50.728Z,59.76
2023-09-29T21:17:55.692Z,60.03
2023-09-29T21:22:59.151Z,60.23
2023-09-29T21:28:04.575Z,59.30
2023-09-29T21:33:09.479Z,59.35
2023-09-29T21:38:12.957Z,59.56
2023-09-29T21:43:16.516Z,59.46
2023-09-29T21:48:21.587Z,59.16
2023-09-29T21:53:25.212Z,59.31
2023-09-29T21:58:28.748Z,59.01
2023-09-29T22:03:34.750Z,59.21
2023-09-29T22:08:38.465Z,59.30
2023-09-29T22:13:42.502Z,59.38
2023-09-29T22:18:47.691Z,59.29
2023-09-29T22:23:52.311Z,58.96
2023-09-29T22:28:57.252Z,58.80
2023-09-29T22:34:02.693Z,59.33
2023-09-29T22:39:08.000Z,59.55
2023-09-29T22:44:12.408Z,59.46
2023-09-29T22:49:20.566Z,60.05
2023-09-29T22:54:24.010Z,60.21
2023-09-29T22:59:27.583Z,61.60
2023-09-29T23:04:32.399Z,62.22
2023-09-29T23:09:36.148Z,62.72
2023-09-29T23:14:39.919Z,62.63
2023-09-29T23:19:45.230Z,62.46
2023-09-29T23:24:48.677Z,62.41
2023-09-29T23:29:53.397Z,63.51
2023-09-29T23:34:58.384Z,63.74
2023-09-29T23:40:02.098Z,63.14
2023-09-29T23:45:07.547Z,63.08
2023-09-29T23:50:12.966Z,63.10
2023-09-29T23:55:17.203Z,62.98
